createdAt,value
2023-01-12T00:01:41.923Z,94266.69
2023-01-12T00:04:11.596Z,94263.84
2023-01-12T00:06:38.344Z,94258.59
2023-01-12T00:09:08.180Z,94259.50
2023-01-12T00:11:36.237Z,94256.50
2023-01-12T00:14:03.716Z,94264.81
2023-01-12T00:16:37.838Z,94264.38
2023-01-12T00:19:16.126Z,94265.94
2023-01-12T00:22:11.171Z,94268.09
2023-01-12T00:24:40.263Z,94272.16
2023-01-12T00:27:09.772Z,94271.84
2023-01-12T00:29:37.398Z,94270.75
2023-01-12T00:32:05.439Z,94265.91
2023-01-12T00:34:32.161Z,94272.78
2023-01-12T00:37:00.918Z,94274.00
2023-01-12T00:39:27.602Z,94278.53
2023-01-12T00:42:12.778Z,94281.81
2023-01-12T00:44:58.145Z,94277.22
2023-01-12T00:47:24.873Z,94271.38
2023-01-12T00:49:51.639Z,94277.22
2023-01-12T00:52:35.519Z,94272.31
2023-01-12T00:55:02.521Z,94279.03
2023-01-12T00:57:29.642Z,94277.81
2023-01-12T00:59:58.364Z,94267.69
2023-01-12T01:02:25.523Z,94277.72
2023-01-12T01:04:52.184Z,94279.41
2023-01-12T01:07:21.550Z,94277.31
2023-01-12T01:09:48.370Z,94282.31
2023-01-12T01:12:15.076Z,94287.91
2023-01-12T01:14:41.729Z,94286.03
2023-01-12T01:17:08.393Z,94270.81
2023-01-12T01:19:35.068Z,94266.44
2023-01-12T01:22:02.119Z,94273.31
2023-01-12T01:24:28.701Z,94276.69
2023-01-12T01:26:55.290Z,94279.28
2023-01-12T01:29:21.922Z,94279.44
2023-01-12T01:31:48.564Z,94282.88
2023-01-12T01:34:15.295Z,94277.81
2023-01-12T01:36:42.016Z,94279.88
2023-01-12T01:39:08.668Z,94285.94
2023-01-12T01:41:35.338Z,94287.66
2023-01-12T01:44:05.119Z,94284.16
2023-01-12T01:46:46.855Z,94287.94
2023-01-12T01:49:24.311Z,94289.44
2023-01-12T01:51:55.800Z,94293.91
2023-01-12T01:54:23.232Z,94283.16
2023-01-12T01:56:55.073Z,94296.53
2023-01-12T01:59:28.244Z,94289.16
2023-01-12T02:01:55.424Z,94288.22
2023-01-12T02:04:23.090Z,94287.75
2023-01-12T02:06:50.072Z,94291.81
2023-01-12T02:09:25.559Z,94287.13
2023-01-12T02:12:13.012Z,94281.97
2023-01-12T02:15:00.742Z,94293.06
2023-01-12T02:17:45.647Z,94286.50
2023-01-12T02:21:00.719Z,94289.25
2023-01-12T02:23:38.993Z,94285.41
2023-01-12T02:26:30.353Z,94290.47
2023-01-12T02:29:34.626Z,94285.44
2023-01-12T02:32:19.812Z,94285.09
2023-01-12T02:35:16.214Z,94291.63
2023-01-12T02:37:53.538Z,94281.31
2023-01-12T02:40:40.339Z,94287.56
2023-01-12T02:43:21.664Z,94284.97
2023-01-12T02:45:54.613Z,94284.22
2023-01-12T02:48:22.072Z,94288.16
2023-01-12T02:50:51.352Z,94287.31
2023-01-12T02:53:31.077Z,94284.56
2023-01-12T02:56:00.878Z,94286.63
2023-01-12T02:58:30.873Z,94289.03
2023-01-12T03:00:59.404Z,94295.66
2023-01-12T03:03:26.588Z,94286.50
2023-01-12T03:05:56.558Z,94296.66
2023-01-12T03:08:27.770Z,94287.16
2023-01-12T03:10:54.342Z,94289.94
2023-01-12T03:13:24.195Z,94282.13
2023-01-12T03:15:55.513Z,94284.72
2023-01-12T03:18:31.280Z,94280.78
2023-01-12T03:21:05.898Z,94280.38
2023-01-12T03:23:53.843Z,94286.28
2023-01-12T03:26:25.484Z,94279.34
2023-01-12T03:28:58.680Z,94277.78
2023-01-12T03:31:25.424Z,94273.53
2023-01-12T03:33:52.113Z,94277.19
2023-01-12T03:36:59.076Z,94279.44
2023-01-12T03:39:34.803Z,94275.56
2023-01-12T03:42:07.619Z,94274.75
2023-01-12T03:44:41.467Z,94280.31
2023-01-12T03:47:16.286Z,94271.19
2023-01-12T03:49:50.631Z,94274.13
2023-01-12T03:52:18.664Z,94270.78
2023-01-12T03:54:46.977Z,94265.16
2023-01-12T03:57:14.307Z,94266.97
2023-01-12T03:59:41.638Z,94263.31
2023-01-12T04:02:08.659Z,94264.25
2023-01-12T04:04:35.596Z,94261.63
2023-01-12T04:07:02.281Z,94262.66
2023-01-12T04:09:28.939Z,94260.72
2023-01-12T04:12:10.361Z,94260.19
2023-01-12T04:14:41.620Z,94251.38
2023-01-12T04:17:09.699Z,94256.69
2023-01-12T04:19:36.382Z,94259.75
2023-01-12T04:22:21.753Z,94254.41
2023-01-12T04:24:48.775Z,94259.56
2023-01-12T04:27:16.370Z,94255.88
2023-01-12T04:29:43.889Z,94256.63
2023-01-12T04:32:11.545Z,94264.66
2023-01-12T04:34:39.576Z,94266.13
2023-01-12T04:37:06.391Z,94271.00
2023-01-12T04:39:32.983Z,94270.16
2023-01-12T04:42:02.789Z,94275.63
2023-01-12T04:44:30.339Z,94282.44
2023-01-12T04:46:56.894Z,94279.31
2023-01-12T04:49:23.542Z,94277.41
2023-01-12T04:51:50.187Z,94286.88
2023-01-12T04:54:16.837Z,94290.53
2023-01-12T04:56:43.450Z,94294.91
2023-01-12T04:59:10.785Z,94288.25
2023-01-12T05:01:39.095Z,94289.56
2023-01-12T05:04:07.925Z,94285.88
2023-01-12T05:06:34.750Z,94300.00
2023-01-12T05:09:20.222Z,94296.84
2023-01-12T05:11:46.946Z,94301.75
2023-01-12T05:14:13.632Z,94297.50
2023-01-12T05:16:40.512Z,94297.91
2023-01-12T05:19:07.219Z,94305.38
2023-01-12T05:21:33.914Z,94300.72
2023-01-12T05:24:00.543Z,94304.91
2023-01-12T05:26:27.173Z,94310.63
2023-01-12T05:28:53.803Z,94309.66
2023-01-12T05:31:20.409Z,94310.28
2023-01-12T05:33:48.128Z,94319.34
2023-01-12T05:36:16.368Z,94313.34
2023-01-12T05:38:43.280Z,94326.50
2023-01-12T05:41:11.945Z,94322.00
2023-01-12T05:43:51.075Z,94336.00
2023-01-12T05:46:31.699Z,94330.38
2023-01-12T05:48:58.497Z,94338.63
2023-01-12T05:51:27.180Z,94336.91
2023-01-12T05:53:55.039Z,94346.56
2023-01-12T05:56:25.861Z,94346.00
2023-01-12T05:58:54.876Z,94345.75
2023-01-12T06:01:22.522Z,94337.13
2023-01-12T06:03:51.290Z,94335.38
2023-01-12T06:06:22.703Z,94337.19
2023-01-12T06:08:52.151Z,94341.88
2023-01-12T06:11:38.561Z,94340.63
2023-01-12T06:14:05.729Z,94349.13
2023-01-12T06:16:32.715Z,94338.47
2023-01-12T06:18:59.314Z,94340.53
2023-01-12T06:21:25.913Z,94348.38
2023-01-12T06:23:52.534Z,94344.91
2023-01-12T06:26:19.346Z,94345.50
2023-01-12T06:28:45.959Z,94347.59
2023-01-12T06:31:13.744Z,94338.56
2023-01-12T06:33:40.860Z,94344.03
2023-01-12T06:36:08.079Z,94336.16
2023-01-12T06:38:37.094Z,94347.38
2023-01-12T06:41:08.830Z,94344.91
2023-01-12T06:43:35.560Z,94343.72
2023-01-12T06:46:02.231Z,94353.88
2023-01-12T06:48:39.112Z,94360.72
2023-01-12T06:51:06.451Z,94352.63
2023-01-12T06:53:33.099Z,94361.88
2023-01-12T06:55:59.740Z,94356.66
2023-01-12T06:58:26.365Z,94364.34
2023-01-12T07:00:52.974Z,94369.31
2023-01-12T07:03:20.472Z,94369.63
2023-01-12T07:05:47.106Z,94365.06
2023-01-12T07:08:16.141Z,94366.06
2023-01-12T07:10:43.925Z,94367.66
2023-01-12T07:13:10.762Z,94374.75
2023-01-12T07:15:37.524Z,94373.13
2023-01-12T07:18:24.571Z,94375.78
2023-01-12T07:21:02.314Z,94373.66
2023-01-12T07:23:28.888Z,94363.91
2023-01-12T07:25:57.815Z,94363.81
2023-01-12T07:28:24.565Z,94368.78
2023-01-12T07:30:51.166Z,94362.97
2023-01-12T07:33:18.764Z,94371.09
2023-01-12T07:35:45.559Z,94369.00
2023-01-12T07:38:12.214Z,94359.44
2023-01-12T07:40:38.797Z,94368.84
2023-01-12T07:43:07.925Z,94360.00
2023-01-12T07:45:35.401Z,94357.72
2023-01-12T07:48:02.268Z,94356.84
2023-01-12T07:50:29.687Z,94356.38
2023-01-12T07:53:01.962Z,94357.03
2023-01-12T07:55:29.552Z,94356.56
2023-01-12T07:57:58.636Z,94348.88
2023-01-12T08:00:26.560Z,94357.03
2023-01-12T08:02:54.993Z,94364.97
2023-01-12T08:05:23.054Z,94373.50
2023-01-12T08:07:50.009Z,94371.97
2023-01-12T08:10:16.998Z,94365.94
2023-01-12T08:12:43.656Z,94371.00
2023-01-12T08:15:11.474Z,94365.16
2023-01-12T08:17:44.170Z,94369.53
2023-01-12T08:20:18.715Z,94358.78
2023-01-12T08:22:47.843Z,94363.28
2023-01-12T08:25:21.914Z,94361.53
2023-01-12T08:27:51.515Z,94359.22
2023-01-12T08:30:21.536Z,94366.25
2023-01-12T08:32:48.274Z,94363.59
2023-01-12T08:35:20.182Z,94350.16
2023-01-12T08:37:55.588Z,94358.13
2023-01-12T08:40:23.395Z,94356.16
2023-01-12T08:42:53.155Z,94360.16
2023-01-12T08:45:21.558Z,94354.09
2023-01-12T08:47:48.251Z,94373.22
2023-01-12T08:50:15.132Z,94363.75
2023-01-12T08:52:41.723Z,94363.53
2023-01-12T08:55:11.175Z,94357.34
2023-01-12T08:57:38.406Z,94359.69
2023-01-12T09:00:06.638Z,94355.63
2023-01-12T09:02:33.329Z,94360.94
2023-01-12T09:04:59.947Z,94355.31
2023-01-12T09:07:26.748Z,94366.19
2023-01-12T09:09:53.448Z,94359.22
2023-01-12T09:12:20.046Z,94364.47
2023-01-12T09:14:46.631Z,94362.31
2023-01-12T09:17:13.230Z,94362.78
2023-01-12T09:19:39.817Z,94360.28
2023-01-12T09:22:06.430Z,94353.59
2023-01-12T09:24:33.003Z,94364.81
2023-01-12T09:27:00.202Z,94368.38
2023-01-12T09:29:26.836Z,94366.13
2023-01-12T09:31:53.543Z,94359.94
2023-01-12T09:34:20.285Z,94365.06
2023-01-12T09:36:46.944Z,94364.38
2023-01-12T09:39:26.717Z,94363.44
2023-01-12T09:42:12.787Z,94363.97
2023-01-12T09:45:07.354Z,94356.59
2023-01-12T09:47:56.462Z,94360.31
2023-01-12T09:50:28.380Z,94361.59
2023-01-12T09:53:02.316Z,94358.34
2023-01-12T09:55:44.269Z,94354.56
2023-01-12T09:58:41.731Z,94357.72
2023-01-12T10:01:24.222Z,94354.28
2023-01-12T10:03:56.335Z,94355.31
2023-01-12T10:06:22.897Z,94359.00
2023-01-12T10:08:52.101Z,94363.25
2023-01-12T10:11:56.251Z,94360.50
2023-01-12T10:15:00.968Z,94349.91
2023-01-12T10:17:50.278Z,94356.50
2023-01-12T10:20:21.777Z,94363.03
2023-01-12T10:22:54.660Z,94352.59
2023-01-12T10:25:45.179Z,94349.38
2023-01-12T10:28:27.448Z,94357.94
2023-01-12T10:30:56.493Z,94351.59
2023-01-12T10:33:31.117Z,94351.59
2023-01-12T10:36:00.587Z,94356.66
2023-01-12T10:38:29.218Z,94352.78
2023-01-12T10:41:07.742Z,94349.22
2023-01-12T10:43:34.533Z,94354.50
2023-01-12T10:46:04.016Z,94342.94
2023-01-12T10:48:31.341Z,94344.84
2023-01-12T10:51:00.517Z,94349.31
2023-01-12T10:53:49.660Z,94344.03
2023-01-12T10:56:28.404Z,94337.03
2023-01-12T10:59:00.722Z,94334.56
2023-01-12T11:01:51.334Z,94327.53
2023-01-12T11:04:28.331Z,94332.97
2023-01-12T11:07:05.386Z,94334.13
2023-01-12T11:09:32.392Z,94339.59
2023-01-12T11:12:01.871Z,94332.78
2023-01-12T11:14:31.809Z,94335.66
2023-01-12T11:17:15.607Z,94328.91
2023-01-12T11:19:44.262Z,94325.63
2023-01-12T11:22:17.551Z,94330.25
2023-01-12T11:24:53.436Z,94319.88
2023-01-12T11:27:34.642Z,94335.06
2023-01-12T11:30:15.812Z,94318.22
2023-01-12T11:32:46.233Z,94315.97
2023-01-12T11:35:24.664Z,94318.38
2023-01-12T11:37:54.286Z,94316.59
2023-01-12T11:40:38.249Z,94324.59
2023-01-12T11:43:51.138Z,94322.19
2023-01-12T11:46:29.225Z,94318.53
2023-01-12T11:49:02.410Z,94306.81
2023-01-12T11:51:29.160Z,94305.78
2023-01-12T11:53:55.831Z,94303.13
2023-01-12T11:56:28.290Z,94303.81
2023-01-12T11:59:05.693Z,94295.72
2023-01-12T12:01:55.943Z,94291.47
2023-01-12T12:04:31.816Z,94285.22
2023-01-12T12:07:06.945Z,94291.28
2023-01-12T12:09:48.478Z,94285.09
2023-01-12T12:12:39.208Z,94293.84
2023-01-12T12:15:22.711Z,94299.16
2023-01-12T12:18:04.599Z,94289.28
2023-01-12T12:20:46.026Z,94279.41
2023-01-12T12:23:32.498Z,94286.03
2023-01-12T12:26:11.982Z,94285.25
2023-01-12T12:28:38.520Z,94282.38
2023-01-12T12:31:46.275Z,94280.28
2023-01-12T12:34:43.687Z,94291.66
2023-01-12T12:37:34.565Z,94285.72
2023-01-12T12:40:20.896Z,94281.97
2023-01-12T12:43:37.672Z,94290.72
2023-01-12T12:46:13.298Z,94282.44
2023-01-12T12:49:03.122Z,94286.69
2023-01-12T12:51:32.645Z,94287.09
2023-01-12T12:54:01.066Z,94293.97
2023-01-12T12:56:30.479Z,94288.53
2023-01-12T12:58:59.069Z,94295.53
2023-01-12T13:01:27.394Z,94300.22
2023-01-12T13:03:54.913Z,94298.06
2023-01-12T13:06:33.942Z,94299.28
2023-01-12T13:09:20.457Z,94305.22
2023-01-12T13:11:59.773Z,94303.97
2023-01-12T13:14:30.945Z,94297.41
2023-01-12T13:17:03.488Z,94304.91
2023-01-12T13:19:36.875Z,94302.28
2023-01-12T13:22:41.059Z,94306.94
2023-01-12T13:25:10.533Z,94311.94
2023-01-12T13:28:11.095Z,94309.28
2023-01-12T13:30:51.159Z,94306.91
2023-01-12T13:33:23.558Z,94313.78
2023-01-12T13:35:50.134Z,94310.69
2023-01-12T13:38:22.420Z,94303.66
2023-01-12T13:40:55.439Z,94303.97
2023-01-12T13:43:32.151Z,94304.94
2023-01-12T13:46:04.356Z,94297.53
2023-01-12T13:48:35.489Z,94301.94
2023-01-12T13:51:07.499Z,94309.81
2023-01-12T13:53:34.108Z,94299.31
2023-01-12T13:56:03.131Z,94301.63
2023-01-12T13:58:39.322Z,94301.59
2023-01-12T14:01:37.184Z,94304.91
2023-01-12T14:04:09.507Z,94300.56
2023-01-12T14:06:52.459Z,94300.84
2023-01-12T14:09:22.114Z,94302.09
2023-01-12T14:12:03.692Z,94298.03
2023-01-12T14:15:32.349Z,94310.84
2023-01-12T14:18:06.399Z,94301.66
2023-01-12T14:21:00.490Z,94296.19
2023-01-12T14:23:27.139Z,94298.06
2023-01-12T14:26:10.203Z,94296.00
2023-01-12T14:28:38.385Z,94297.88
2023-01-12T14:31:16.521Z,94293.38
2023-01-12T14:33:50.556Z,94302.09
2023-01-12T14:36:22.111Z,94307.66
2023-01-12T14:38:49.934Z,94309.69
2023-01-12T14:41:39.229Z,94309.78
2023-01-12T14:44:25.443Z,94309.44
2023-01-12T14:46:53.951Z,94312.22
2023-01-12T14:49:33.879Z,94310.84
2023-01-12T14:52:36.673Z,94311.06
2023-01-12T14:55:37.841Z,94314.09
2023-01-12T14:58:06.064Z,94327.25
2023-01-12T15:00:36.205Z,94321.91
2023-01-12T15:03:14.700Z,94321.09
2023-01-12T15:05:42.143Z,94328.59
2023-01-12T15:08:08.691Z,94322.38
2023-01-12T15:10:39.386Z,94333.00
2023-01-12T15:13:21.171Z,94334.06
2023-01-12T15:16:06.405Z,94340.22
2023-01-12T15:18:53.773Z,94335.03
2023-01-12T15:21:39.723Z,94342.22
2023-01-12T15:24:46.440Z,94351.53
2023-01-12T15:27:19.576Z,94348.13
2023-01-12T15:29:46.452Z,94339.22
2023-01-12T15:32:20.544Z,94352.81
2023-01-12T15:34:47.705Z,94349.06
2023-01-12T15:37:17.331Z,94353.13
2023-01-12T15:39:44.079Z,94356.97
2023-01-12T15:42:18.388Z,94348.31
2023-01-12T15:44:45.878Z,94356.06
2023-01-12T15:47:14.194Z,94352.69
2023-01-12T15:49:41.784Z,94353.63
2023-01-12T15:52:16.444Z,94352.16
2023-01-12T15:54:43.386Z,94362.19
2023-01-12T15:57:14.961Z,94356.16
2023-01-12T15:59:41.926Z,94355.66
2023-01-12T16:02:34.309Z,94361.31
2023-01-12T16:05:03.705Z,94367.13
2023-01-12T16:07:30.425Z,94367.50
2023-01-12T16:09:57.877Z,94367.38
2023-01-12T16:12:25.079Z,94374.81
2023-01-12T16:14:52.279Z,94369.94
2023-01-12T16:17:19.009Z,94372.09
2023-01-12T16:23:09.355Z,94377.59
2023-01-12T16:25:36.934Z,94383.53
2023-01-12T16:28:05.147Z,94383.38
2023-01-12T16:30:47.672Z,94388.59
2023-01-12T16:33:16.526Z,94390.22
2023-01-12T16:35:46.289Z,94390.84
2023-01-12T16:38:17.147Z,94392.53
2023-01-12T16:40:47.971Z,94385.44
2023-01-12T16:43:21.014Z,94387.00
2023-01-12T16:45:47.756Z,94389.19
2023-01-12T16:48:14.990Z,94402.19
2023-01-12T16:50:43.275Z,94407.94
2023-01-12T16:53:14.148Z,94398.06
2023-01-12T16:55:40.786Z,94408.91
2023-01-12T16:58:08.935Z,94409.97
2023-01-12T17:00:38.930Z,94408.22
2023-01-12T17:03:06.209Z,94403.03
2023-01-12T17:05:32.988Z,94409.25
2023-01-12T17:08:01.762Z,94413.47
2023-01-12T17:10:28.433Z,94416.22
2023-01-12T17:12:59.609Z,94423.72
2023-01-12T17:15:29.155Z,94425.97
2023-01-12T17:17:57.231Z,94421.00
2023-01-12T17:20:24.037Z,94430.09
2023-01-12T17:22:50.988Z,94431.50
2023-01-12T17:25:17.807Z,94431.16
2023-01-12T17:27:44.759Z,94432.72
2023-01-12T17:30:11.972Z,94434.94
2023-01-12T17:32:39.363Z,94438.34
2023-01-12T17:35:09.272Z,94438.47
2023-01-12T17:37:36.403Z,94441.19
2023-01-12T17:40:04.126Z,94439.72
2023-01-12T17:42:49.226Z,94438.38
2023-01-12T17:45:15.862Z,94435.56
2023-01-12T17:47:42.515Z,94446.22
2023-01-12T17:50:09.942Z,94443.31
2023-01-12T17:52:36.635Z,94444.59
2023-01-12T17:55:03.426Z,94452.59
2023-01-12T17:57:31.600Z,94448.50
2023-01-12T17:59:58.407Z,94450.72
2023-01-12T18:02:25.299Z,94449.03
2023-01-12T18:04:52.148Z,94451.84
2023-01-12T18:07:31.048Z,94453.00
2023-01-12T18:09:57.893Z,94458.03
2023-01-12T18:12:26.085Z,94456.16
2023-01-12T18:14:52.881Z,94457.44
2023-01-12T18:17:29.735Z,94454.78
2023-01-12T18:20:02.688Z,94456.91
2023-01-12T18:22:42.046Z,94457.66
2023-01-12T18:25:09.222Z,94452.66
2023-01-12T18:27:35.811Z,94452.59
2023-01-12T18:30:03.175Z,94461.94
2023-01-12T18:32:29.741Z,94455.47
2023-01-12T18:34:57.879Z,94452.63
2023-01-12T18:37:30.333Z,94454.88
2023-01-12T18:39:56.905Z,94460.19
2023-01-12T18:42:42.154Z,94457.91
2023-01-12T18:45:09.335Z,94464.13
2023-01-12T18:47:54.528Z,94456.59
2023-01-12T18:50:39.537Z,94455.34
2023-01-12T18:53:24.027Z,94454.09
2023-01-12T18:55:57.287Z,94458.28
2023-01-12T18:58:29.025Z,94460.63
2023-01-12T19:00:59.565Z,94467.78
2023-01-12T19:03:26.586Z,94457.69
2023-01-12T19:05:56.001Z,94448.16
2023-01-12T19:08:28.477Z,94450.81
2023-01-12T19:10:55.990Z,94458.97
2023-01-12T19:13:41.243Z,94454.94
2023-01-12T19:16:32.403Z,94456.19
2023-01-12T19:18:59.014Z,94464.75
2023-01-12T19:25:29.196Z,94462.13
2023-01-12T19:28:15.942Z,94464.56
2023-01-12T19:31:06.205Z,94464.28
2023-01-12T19:33:33.796Z,94456.97
2023-01-12T19:36:39.043Z,94460.19
2023-01-12T19:39:36.114Z,94455.22
2023-01-12T19:42:30.848Z,94454.09
2023-01-12T19:44:58.127Z,94455.34
2023-01-12T19:47:24.847Z,94449.31
2023-01-12T19:49:51.471Z,94451.56
2023-01-12T19:52:27.198Z,94443.47
2023-01-12T19:54:57.195Z,94444.00
2023-01-12T19:58:05.792Z,94451.97
2023-01-12T20:00:32.413Z,94444.47
2023-01-12T20:02:59.041Z,94444.00
2023-01-12T20:05:25.745Z,94441.47
2023-01-12T20:07:53.410Z,94446.41
2023-01-12T20:10:23.990Z,94441.78
2023-01-12T20:12:52.373Z,94443.31
2023-01-12T20:15:20.797Z,94452.44
2023-01-12T20:17:48.801Z,94447.28
2023-01-12T20:20:16.657Z,94451.03
2023-01-12T20:22:44.111Z,94449.47
2023-01-12T20:25:11.427Z,94446.69
2023-01-12T20:27:38.953Z,94444.81
2023-01-12T20:30:07.442Z,94452.75
2023-01-12T20:32:41.592Z,94455.22
2023-01-12T20:35:11.794Z,94458.81
2023-01-12T20:37:38.477Z,94461.72
2023-01-12T20:40:06.227Z,94450.09
2023-01-12T20:42:33.117Z,94456.50
2023-01-12T20:45:02.256Z,94462.44
2023-01-12T20:47:30.733Z,94460.06
2023-01-12T20:49:58.241Z,94461.13
2023-01-12T20:52:25.679Z,94448.81
2023-01-12T20:54:53.367Z,94452.56
2023-01-12T20:57:21.201Z,94451.97
2023-01-12T20:59:49.077Z,94453.19
2023-01-12T21:02:21.950Z,94457.16
2023-01-12T21:04:48.857Z,94460.69
2023-01-12T21:07:16.488Z,94454.31
2023-01-12T21:09:43.138Z,94449.31
2023-01-12T21:12:10.173Z,94457.31
2023-01-12T21:14:37.389Z,94459.13
2023-01-12T21:17:05.683Z,94450.88
2023-01-12T21:19:33.332Z,94451.19
2023-01-12T21:22:00.239Z,94458.22
2023-01-12T21:24:27.455Z,94450.25
2023-01-12T21:26:55.619Z,94458.84
2023-01-12T21:29:23.170Z,94456.81
2023-01-12T21:31:49.889Z,94454.31
2023-01-12T21:34:16.549Z,94464.44
2023-01-12T21:36:43.624Z,94464.25
2023-01-12T21:39:10.198Z,94458.66
2023-01-12T21:41:56.764Z,94458.31
2023-01-12T21:44:23.385Z,94451.78
2023-01-12T21:46:50.085Z,94448.34
2023-01-12T21:49:16.887Z,94453.19
2023-01-12T21:51:43.544Z,94456.97
2023-01-12T21:54:10.248Z,94463.53
2023-01-12T21:56:44.392Z,94457.28
2023-01-12T21:59:12.464Z,94450.09
2023-01-12T22:01:39.345Z,94449.72
2023-01-12T22:04:06.225Z,94449.44
2023-01-12T22:06:32.928Z,94448.13
2023-01-12T22:08:59.531Z,94443.69
2023-01-12T22:11:26.463Z,94442.72
2023-01-12T22:14:02.990Z,94446.38
2023-01-12T22:16:29.964Z,94449.38
2023-01-12T22:19:14.404Z,94447.41
2023-01-12T22:21:41.100Z,94446.97
2023-01-12T22:24:07.847Z,94450.44
2023-01-12T22:26:34.425Z,94440.09
2023-01-12T22:29:01.044Z,94442.22
2023-01-12T22:31:27.691Z,94440.66
2023-01-12T22:34:05.470Z,94445.81
2023-01-12T22:36:35.225Z,94438.78
2023-01-12T22:39:02.090Z,94438.81
2023-01-12T22:41:28.696Z,94433.66
2023-01-12T22:43:55.683Z,94429.16
2023-01-12T22:46:25.219Z,94424.72
2023-01-12T22:48:53.919Z,94421.31
2023-01-12T22:51:22.164Z,94415.47
2023-01-12T22:53:48.995Z,94411.94
2023-01-12T22:56:15.586Z,94413.84
2023-01-12T22:58:50.165Z,94413.59
2023-01-12T23:01:18.278Z,94422.41
2023-01-12T23:03:45.817Z,94423.84
2023-01-12T23:06:14.328Z,94425.06
2023-01-12T23:08:42.482Z,94423.59
2023-01-12T23:11:19.657Z,94429.34
2023-01-12T23:13:46.615Z,94430.31
2023-01-12T23:16:16.479Z,94430.31
2023-01-12T23:18:44.188Z,94424.06
2023-01-12T23:21:15.453Z,94427.78
2023-01-12T23:23:47.626Z,94427.09
2023-01-12T23:26:17.281Z,94423.47
2023-01-12T23:28:50.275Z,94416.75
2023-01-12T23:31:19.506Z,94423.75
2023-01-12T23:33:46.236Z,94434.00
2023-01-12T23:36:18.653Z,94428.47
2023-01-12T23:38:45.493Z,94435.50
2023-01-12T23:41:23.438Z,94432.34
2023-01-12T23:43:53.210Z,94438.31
2023-01-12T23:46:24.458Z,94436.63
2023-01-12T23:48:52.193Z,94431.72
2023-01-12T23:51:19.178Z,94441.53
2023-01-12T23:53:46.224Z,94429.25
2023-01-12T23:56:15.165Z,94430.53
2023-01-12T23:58:42.503Z,94437.34
